sensor_id;sensor_type;location;lat;lon;timestamp;pressure;altitude;pressure_sealevel;temperature;humidity
9335;BME280;4706;41.844;26.082;2022-08-30T00:01:04;100546.50;;;28.92;44.16
9335;BME280;4706;41.844;26.082;2022-08-30T00:03:34;100550.13;;;28.92;44.15
9335;BME280;4706;41.844;26.082;2022-08-30T00:06:01;100554.13;;;28.95;44.13
9335;BME280;4706;41.844;26.082;2022-08-30T00:08:27;100544.00;;;28.97;44.17
9335;BME280;4706;41.844;26.082;2022-08-30T00:10:53;100552.66;;;28.87;44.16
9335;BME280;4706;41.844;26.082;2022-08-30T00:13:20;100542.72;;;28.75;44.29
9335;BME280;4706;41.844;26.082;2022-08-30T00:15:47;100543.56;;;28.72;44.14
9335;BME280;4706;41.844;26.082;2022-08-30T00:18:15;100546.34;;;28.75;44.34
9335;BME280;4706;41.844;26.082;2022-08-30T00:20:43;100549.97;;;28.76;44.19
9335;BME280;4706;41.844;26.082;2022-08-30T00:23:10;100535.50;;;28.70;44.24
9335;BME280;4706;41.844;26.082;2022-08-30T00:25:35;100543.66;;;28.65;44.06
9335;BME280;4706;41.844;26.082;2022-08-30T00:28:01;100517.31;;;28.41;44.47
9335;BME280;4706;41.844;26.082;2022-08-30T00:30:27;100557.44;;;28.63;44.38
9335;BME280;4706;41.844;26.082;2022-08-30T00:32:52;100545.00;;;28.56;44.34
9335;BME280;4706;41.844;26.082;2022-08-30T00:35:18;100551.59;;;28.46;44.52
9335;BME280;4706;41.844;26.082;2022-08-30T00:37:45;100547.91;;;28.49;44.49
9335;BME280;4706;41.844;26.082;2022-08-30T00:40:12;100542.69;;;28.48;44.54
9335;BME280;4706;41.844;26.082;2022-08-30T00:42:41;100545.13;;;28.46;44.79
9335;BME280;4706;41.844;26.082;2022-08-30T00:45:22;100539.41;;;28.49;44.48
9335;BME280;4706;41.844;26.082;2022-08-30T00:47:49;100548.84;;;28.39;44.77
9335;BME280;4706;41.844;26.082;2022-08-30T00:50:17;100548.47;;;28.37;44.76
9335;BME280;4706;41.844;26.082;2022-08-30T00:52:47;100547.69;;;28.33;44.97
9335;BME280;4706;41.844;26.082;2022-08-30T00:55:16;100540.34;;;28.39;44.76
9335;BME280;4706;41.844;26.082;2022-08-30T00:57:44;100546.84;;;28.36;45.08
9335;BME280;4706;41.844;26.082;2022-08-30T01:00:11;100550.53;;;28.33;44.84
9335;BME280;4706;41.844;26.082;2022-08-30T01:02:38;100551.38;;;28.30;45.16
9335;BME280;4706;41.844;26.082;2022-08-30T01:05:06;100548.97;;;28.28;45.02
9335;BME280;4706;41.844;26.082;2022-08-30T01:07:32;100540.41;;;28.32;44.66
9335;BME280;4706;41.844;26.082;2022-08-30T01:10:00;100543.19;;;28.36;44.50
9335;BME280;4706;41.844;26.082;2022-08-30T01:12:27;100546.47;;;28.34;44.73
9335;BME280;4706;41.844;26.082;2022-08-30T01:14:52;100538.88;;;28.27;44.72
9335;BME280;4706;41.844;26.082;2022-08-30T01:17:19;100551.00;;;28.24;45.09
9335;BME280;4706;41.844;26.082;2022-08-30T01:24:58;100539.00;;;28.17;44.98
9335;BME280;4706;41.844;26.082;2022-08-30T01:27:26;100541.19;;;28.02;45.25
9335;BME280;4706;41.844;26.082;2022-08-30T01:29:52;100539.47;;;28.12;44.83
9335;BME280;4706;41.844;26.082;2022-08-30T01:32:21;100541.53;;;28.07;44.80
9335;BME280;4706;41.844;26.082;2022-08-30T01:34:48;100542.88;;;27.96;45.26
9335;BME280;4706;41.844;26.082;2022-08-30T01:37:20;100542.22;;;27.81;45.68
9335;BME280;4706;41.844;26.082;2022-08-30T01:39:47;100545.44;;;27.83;45.80
9335;BME280;4706;41.844;26.082;2022-08-30T01:42:14;100535.75;;;27.84;45.70
9335;BME280;4706;41.844;26.082;2022-08-30T01:44:42;100530.50;;;27.82;45.52
9335;BME280;4706;41.844;26.082;2022-08-30T01:47:08;100500.75;;;27.67;45.36
9335;BME280;4706;41.844;26.082;2022-08-30T01:49:33;100530.31;;;28.00;45.01
9335;BME280;4706;41.844;26.082;2022-08-30T01:51:59;100543.25;;;27.98;45.16
9335;BME280;4706;41.844;26.082;2022-08-30T01:54:24;100542.84;;;27.99;45.15
9335;BME280;4706;41.844;26.082;2022-08-30T01:56:50;100532.50;;;27.86;45.51
9335;BME280;4706;41.844;26.082;2022-08-30T01:59:15;100534.09;;;27.87;45.78
9335;BME280;4706;41.844;26.082;2022-08-30T02:01:41;100538.91;;;27.90;45.81
9335;BME280;4706;41.844;26.082;2022-08-30T02:04:08;100536.03;;;27.93;45.44
9335;BME280;4706;41.844;26.082;2022-08-30T02:06:37;100540.09;;;27.92;45.80
9335;BME280;4706;41.844;26.082;2022-08-30T02:09:03;100545.44;;;27.83;45.91
9335;BME280;4706;41.844;26.082;2022-08-30T02:11:29;100555.94;;;27.82;45.89
9335;BME280;4706;41.844;26.082;2022-08-30T02:13:54;100553.09;;;27.82;45.78
9335;BME280;4706;41.844;26.082;2022-08-30T02:16:21;100544.31;;;27.73;46.20
9335;BME280;4706;41.844;26.082;2022-08-30T02:18:48;100548.34;;;27.72;46.38
9335;BME280;4706;41.844;26.082;2022-08-30T02:21:14;100553.66;;;27.67;46.32
9335;BME280;4706;41.844;26.082;2022-08-30T02:23:41;100552.22;;;27.48;46.80
9335;BME280;4706;41.844;26.082;2022-08-30T02:26:07;100565.09;;;27.49;47.00
9335;BME280;4706;41.844;26.082;2022-08-30T02:28:33;100550.66;;;27.40;47.10
9335;BME280;4706;41.844;26.082;2022-08-30T02:30:59;100557.13;;;27.40;47.06
9335;BME280;4706;41.844;26.082;2022-08-30T02:33:25;100551.13;;;27.34;47.17
9335;BME280;4706;41.844;26.082;2022-08-30T02:35:50;100560.34;;;27.42;47.21
9335;BME280;4706;41.844;26.082;2022-08-30T02:38:16;100553.50;;;27.40;46.88
9335;BME280;4706;41.844;26.082;2022-08-30T02:40:43;100559.97;;;27.36;47.01
9335;BME280;4706;41.844;26.082;2022-08-30T02:43:10;100560.75;;;27.41;47.03
9335;BME280;4706;41.844;26.082;2022-08-30T02:45:36;100553.56;;;27.32;47.23
9335;BME280;4706;41.844;26.082;2022-08-30T02:48:02;100564.06;;;27.32;47.29
9335;BME280;4706;41.844;26.082;2022-08-30T02:50:27;100556.44;;;27.25;47.32
9335;BME280;4706;41.844;26.082;2022-08-30T02:52:53;100555.56;;;27.32;47.26
9335;BME280;4706;41.844;26.082;2022-08-30T02:55:19;100562.06;;;27.29;47.44
9335;BME280;4706;41.844;26.082;2022-08-30T02:57:44;100556.84;;;27.24;47.49
9335;BME280;4706;41.844;26.082;2022-08-30T03:00:14;100569.75;;;27.25;47.36
9335;BME280;4706;41.844;26.082;2022-08-30T03:02:41;100567.75;;;27.22;47.59
9335;BME280;4706;41.844;26.082;2022-08-30T03:05:08;100568.53;;;27.26;47.45
9335;BME280;4706;41.844;26.082;2022-08-30T03:07:33;100562.97;;;27.15;47.72
9335;BME280;4706;41.844;26.082;2022-08-30T03:09:59;100560.97;;;27.16;47.93
9335;BME280;4706;41.844;26.082;2022-08-30T03:12:25;100569.47;;;27.12;47.79
9335;BME280;4706;41.844;26.082;2022-08-30T03:14:51;100566.63;;;27.16;48.04
9335;BME280;4706;41.844;26.082;2022-08-30T03:17:17;100558.53;;;27.10;47.82
9335;BME280;4706;41.844;26.082;2022-08-30T03:19:43;100557.31;;;27.15;47.76
9335;BME280;4706;41.844;26.082;2022-08-30T03:22:09;100534.44;;;26.95;48.04
9335;BME280;4706;41.844;26.082;2022-08-30T03:24:36;100558.16;;;27.08;48.38
9335;BME280;4706;41.844;26.082;2022-08-30T03:27:02;100560.97;;;27.08;48.36
9335;BME280;4706;41.844;26.082;2022-08-30T03:29:27;100571.06;;;27.06;48.52
9335;BME280;4706;41.844;26.082;2022-08-30T03:31:55;100574.69;;;27.06;48.22
9335;BME280;4706;41.844;26.082;2022-08-30T03:34:22;100574.31;;;27.04;48.17
9335;BME280;4706;41.844;26.082;2022-08-30T03:36:50;100569.91;;;26.96;48.44
9335;BME280;4706;41.844;26.082;2022-08-30T03:39:17;100575.97;;;26.98;48.91
9335;BME280;4706;41.844;26.082;2022-08-30T03:41:42;100585.63;;;27.01;48.79
9335;BME280;4706;41.844;26.082;2022-08-30T03:44:10;100574.38;;;26.94;48.63
9335;BME280;4706;41.844;26.082;2022-08-30T03:46:35;100592.16;;;26.91;48.68
9335;BME280;4706;41.844;26.082;2022-08-30T03:49:03;100596.22;;;26.82;49.07
9335;BME280;4706;41.844;26.082;2022-08-30T03:51:28;100589.38;;;26.80;49.05
9335;BME280;4706;41.844;26.082;2022-08-30T03:53:54;100597.03;;;26.79;49.09
9335;BME280;4706;41.844;26.082;2022-08-30T03:56:19;100596.59;;;26.84;48.95
9335;BME280;4706;41.844;26.082;2022-08-30T03:58:45;100588.56;;;26.79;49.23
9335;BME280;4706;41.844;26.082;2022-08-30T04:01:11;100574.97;;;26.60;49.55
9335;BME280;4706;41.844;26.082;2022-08-30T04:03:37;100600.31;;;26.74;49.33
9335;BME280;4706;41.844;26.082;2022-08-30T04:06:03;100595.47;;;26.75;49.36
9335;BME280;4706;41.844;26.082;2022-08-30T04:08:29;100605.94;;;26.74;49.32
9335;BME280;4706;41.844;26.082;2022-08-30T04:10:54;100598.28;;;26.75;49.37
9335;BME280;4706;41.844;26.082;2022-08-30T04:13:22;100601.44;;;26.84;49.29
9335;BME280;4706;41.844;26.082;2022-08-30T04:15:48;100613.16;;;26.86;49.53
9335;BME280;4706;41.844;26.082;2022-08-30T04:18:13;100611.53;;;26.81;49.45
9335;BME280;4706;41.844;26.082;2022-08-30T04:20:40;100609.53;;;26.82;49.29
9335;BME280;4706;41.844;26.082;2022-08-30T04:23:05;100615.94;;;26.90;49.48
9335;BME280;4706;41.844;26.082;2022-08-30T04:25:33;100620.72;;;26.96;49.34
9335;BME280;4706;41.844;26.082;2022-08-30T04:27:59;100615.47;;;27.02;49.29
9335;BME280;4706;41.844;26.082;2022-08-30T04:30:25;100614.19;;;27.10;49.44
9335;BME280;4706;41.844;26.082;2022-08-30T04:32:51;100606.16;;;27.12;48.94
9335;BME280;4706;41.844;26.082;2022-08-30T04:35:16;100612.13;;;27.25;48.97
9335;BME280;4706;41.844;26.082;2022-08-30T04:37:42;100612.06;;;27.32;49.05
9335;BME280;4706;41.844;26.082;2022-08-30T04:40:08;100612.84;;;27.36;49.32
9335;BME280;4706;41.844;26.082;2022-08-30T04:42:35;100614.84;;;27.39;49.07
9335;BME280;4706;41.844;26.082;2022-08-30T04:45:04;100621.25;;;27.43;49.36
9335;BME280;4706;41.844;26.082;2022-08-30T04:47:31;100621.22;;;27.50;49.32
9335;BME280;4706;41.844;26.082;2022-08-30T04:49:56;100626.00;;;27.57;49.22
9335;BME280;4706;41.844;26.082;2022-08-30T04:52:22;100623.91;;;27.65;49.40
9335;BME280;4706;41.844;26.082;2022-08-30T04:54:53;100621.41;;;27.77;48.75
9335;BME280;4706;41.844;26.082;2022-08-30T04:57:19;100624.94;;;27.89;48.61
9335;BME280;4706;41.844;26.082;2022-08-30T04:59:44;100626.41;;;28.04;48.47
9335;BME280;4706;41.844;26.082;2022-08-30T05:02:10;100623.84;;;28.17;47.79
9335;BME280;4706;41.844;26.082;2022-08-30T05:04:35;100628.16;;;28.28;47.74
9335;BME280;4706;41.844;26.082;2022-08-30T05:07:01;100629.72;;;28.33;47.52
9335;BME280;4706;41.844;26.082;2022-08-30T05:09:29;100629.72;;;28.33;47.62
9335;BME280;4706;41.844;26.082;2022-08-30T05:11:55;100629.69;;;28.40;47.19
9335;BME280;4706;41.844;26.082;2022-08-30T05:14:20;100627.66;;;28.41;47.14
9335;BME280;4706;41.844;26.082;2022-08-30T05:16:46;100631.53;;;28.54;47.28
9335;BME280;4706;41.844;26.082;2022-08-30T05:19:11;100637.50;;;28.63;47.03
9335;BME280;4706;41.844;26.082;2022-08-30T05:21:37;100636.22;;;28.68;46.86
9335;BME280;4706;41.844;26.082;2022-08-30T05:24:04;100637.75;;;28.72;46.30
9335;BME280;4706;41.844;26.082;2022-08-30T05:26:32;100631.25;;;28.75;46.55
9335;BME280;4706;41.844;26.082;2022-08-30T05:28:59;100639.66;;;28.83;46.86
9335;BME280;4706;41.844;26.082;2022-08-30T05:31:28;100637.16;;;28.88;47.11
9335;BME280;4706;41.844;26.082;2022-08-30T05:33:54;100643.94;;;28.94;46.86
9335;BME280;4706;41.844;26.082;2022-08-30T05:36:22;100625.50;;;28.83;47.32
9335;BME280;4706;41.844;26.082;2022-08-30T05:38:49;100637.53;;;28.90;47.60
9335;BME280;4706;41.844;26.082;2022-08-30T05:41:17;100641.50;;;29.00;47.38
9335;BME280;4706;41.844;26.082;2022-08-30T05:43:43;100637.38;;;29.04;47.39
9335;BME280;4706;41.844;26.082;2022-08-30T05:46:11;100640.00;;;29.19;47.17
9335;BME280;4706;41.844;26.082;2022-08-30T05:48:38;100642.19;;;29.35;46.96
9335;BME280;4706;41.844;26.082;2022-08-30T05:51:10;100638.81;;;29.43;46.92
9335;BME280;4706;41.844;26.082;2022-08-30T05:53:37;100621.69;;;29.50;46.59
9335;BME280;4706;41.844;26.082;2022-08-30T05:56:05;100624.31;;;29.65;46.58
9335;BME280;4706;41.844;26.082;2022-08-30T05:58:32;100632.16;;;29.81;46.20
9335;BME280;4706;41.844;26.082;2022-08-30T06:00:58;100627.44;;;29.94;45.86
9335;BME280;4706;41.844;26.082;2022-08-30T06:03:25;100631.13;;;30.14;45.42
9335;BME280;4706;41.844;26.082;2022-08-30T06:05:51;100616.91;;;30.18;45.08
9335;BME280;4706;41.844;26.082;2022-08-30T06:08:16;100613.47;;;30.27;45.11
9335;BME280;4706;41.844;26.082;2022-08-30T06:10:42;100625.22;;;30.48;44.89
9335;BME280;4706;41.844;26.082;2022-08-30T06:13:08;100628.56;;;30.63;44.80
9335;BME280;4706;41.844;26.082;2022-08-30T06:15:33;100625.88;;;30.76;44.72
9335;BME280;4706;41.844;26.082;2022-08-30T06:17:59;100615.88;;;30.88;44.25
9335;BME280;4706;41.844;26.082;2022-08-30T06:20:25;100615.22;;;31.00;43.82
9335;BME280;4706;41.844;26.082;2022-08-30T06:22:50;100623.84;;;31.13;43.68
9335;BME280;4706;41.844;26.082;2022-08-30T06:25:16;100630.56;;;31.39;42.79
9335;BME280;4706;41.844;26.082;2022-08-30T06:27:42;100636.41;;;31.48;43.33
9335;BME280;4706;41.844;26.082;2022-08-30T06:30:09;100636.34;;;31.68;42.43
9335;BME280;4706;41.844;26.082;2022-08-30T06:32:38;100643.19;;;31.87;41.97
9335;BME280;4706;41.844;26.082;2022-08-30T06:35:05;100636.50;;;32.10;41.99
9335;BME280;4706;41.844;26.082;2022-08-30T06:37:31;100637.34;;;32.23;41.29
9335;BME280;4706;41.844;26.082;2022-08-30T06:39:58;100635.72;;;32.38;40.85
9335;BME280;4706;41.844;26.082;2022-08-30T06:42:26;100638.41;;;32.58;40.62
9335;BME280;4706;41.844;26.082;2022-08-30T06:45:02;100644.72;;;32.79;39.80
9335;BME280;4706;41.844;26.082;2022-08-30T06:47:28;100641.00;;;32.95;39.44
9335;BME280;4706;41.844;26.082;2022-08-30T06:49:54;100636.59;;;33.06;39.40
9335;BME280;4706;41.844;26.082;2022-08-30T06:52:20;100637.06;;;33.18;38.52
9335;BME280;4706;41.844;26.082;2022-08-30T06:54:45;100635.78;;;33.31;38.27
9335;BME280;4706;41.844;26.082;2022-08-30T06:57:11;100636.16;;;33.46;38.32
9335;BME280;4706;41.844;26.082;2022-08-30T06:59:37;100638.72;;;33.66;36.68
9335;BME280;4706;41.844;26.082;2022-08-30T07:02:04;100636.13;;;33.72;37.29
9335;BME280;4706;41.844;26.082;2022-08-30T07:04:30;100636.06;;;33.84;36.55
9335;BME280;4706;41.844;26.082;2022-08-30T07:06:56;100634.34;;;33.87;36.22
9335;BME280;4706;41.844;26.082;2022-08-30T07:09:24;100641.31;;;33.99;36.26
9335;BME280;4706;41.844;26.082;2022-08-30T07:11:51;100637.75;;;34.07;35.61
9335;BME280;4706;41.844;26.082;2022-08-30T07:14:17;100629.72;;;34.15;35.76
9335;BME280;4706;41.844;26.082;2022-08-30T07:16:44;100628.75;;;34.31;35.63
9335;BME280;4706;41.844;26.082;2022-08-30T07:19:10;100629.34;;;34.48;34.94
9335;BME280;4706;41.844;26.082;2022-08-30T07:21:38;100619.78;;;34.64;34.71
9335;BME280;4706;41.844;26.082;2022-08-30T07:24:05;100630.88;;;34.84;34.12
9335;BME280;4706;41.844;26.082;2022-08-30T07:26:35;100637.44;;;34.93;34.13
9335;BME280;4706;41.844;26.082;2022-08-30T07:29:02;100628.66;;;35.10;34.09
9335;BME280;4706;41.844;26.082;2022-08-30T07:31:29;100639.56;;;35.33;33.80
9335;BME280;4706;41.844;26.082;2022-08-30T07:33:55;100636.63;;;35.55;33.30
9335;BME280;4706;41.844;26.082;2022-08-30T07:36:21;100642.72;;;35.75;33.30
9335;BME280;4706;41.844;26.082;2022-08-30T07:38:48;100627.63;;;35.93;32.61
9335;BME280;4706;41.844;26.082;2022-08-30T07:41:17;100628.63;;;36.09;32.49
9335;BME280;4706;41.844;26.082;2022-08-30T07:43:44;100630.22;;;36.28;32.10
9335;BME280;4706;41.844;26.082;2022-08-30T07:46:10;100623.22;;;36.38;32.02
9335;BME280;4706;41.844;26.082;2022-08-30T07:48:36;100624.78;;;36.58;31.54
9335;BME280;4706;41.844;26.082;2022-08-30T07:51:02;100620.66;;;36.68;31.34
9335;BME280;4706;41.844;26.082;2022-08-30T07:53:29;100615.94;;;36.89;30.90
9335;BME280;4706;41.844;26.082;2022-08-30T07:55:56;100624.69;;;37.04;30.99
9335;BME280;4706;41.844;26.082;2022-08-30T07:58:22;100623.03;;;37.21;29.93
9335;BME280;4706;41.844;26.082;2022-08-30T08:00:48;100624.44;;;37.26;29.88
9335;BME280;4706;41.844;26.082;2022-08-30T08:03:13;100621.72;;;37.31;29.65
9335;BME280;4706;41.844;26.082;2022-08-30T08:05:41;100609.47;;;37.22;29.65
9335;BME280;4706;41.844;26.082;2022-08-30T08:08:07;100622.00;;;37.33;30.12
9335;BME280;4706;41.844;26.082;2022-08-30T08:10:35;100623.53;;;37.53;29.90
9335;BME280;4706;41.844;26.082;2022-08-30T08:13:01;100622.31;;;37.68;28.89
9335;BME280;4706;41.844;26.082;2022-08-30T08:15:27;100618.09;;;37.79;29.12
9335;BME280;4706;41.844;26.082;2022-08-30T08:17:53;100629.78;;;37.99;28.37
9335;BME280;4706;41.844;26.082;2022-08-30T08:20:19;100623.97;;;38.08;28.33
9335;BME280;4706;41.844;26.082;2022-08-30T08:22:45;100612.88;;;38.16;27.83
9335;BME280;4706;41.844;26.082;2022-08-30T08:25:10;100610.91;;;38.22;27.91
9335;BME280;4706;41.844;26.082;2022-08-30T08:27:36;100616.03;;;38.42;27.46
9335;BME280;4706;41.844;26.082;2022-08-30T08:30:02;100613.34;;;38.53;27.36
9335;BME280;4706;41.844;26.082;2022-08-30T08:32:28;100609.38;;;38.51;26.84
9335;BME280;4706;41.844;26.082;2022-08-30T08:34:54;100608.78;;;38.61;26.76
9335;BME280;4706;41.844;26.082;2022-08-30T08:37:19;100610.56;;;38.59;26.85
9335;BME280;4706;41.844;26.082;2022-08-30T08:39:46;100612.06;;;38.54;26.84
9335;BME280;4706;41.844;26.082;2022-08-30T08:42:18;100603.75;;;38.56;26.20
9335;BME280;4706;41.844;26.082;2022-08-30T08:49:57;100596.31;;;38.79;25.56
9335;BME280;4706;41.844;26.082;2022-08-30T08:52:41;100596.91;;;38.69;24.86
9335;BME280;4706;41.844;26.082;2022-08-30T08:55:28;100606.13;;;38.58;25.79
9335;BME280;4706;41.844;26.082;2022-08-30T08:57:55;100600.06;;;38.41;25.86
9335;BME280;4706;41.844;26.082;2022-08-30T09:00:21;100609.09;;;38.34;26.29
9335;BME280;4706;41.844;26.082;2022-08-30T09:03:01;100596.31;;;38.50;25.79
9335;BME280;4706;41.844;26.082;2022-08-30T09:05:34;100588.19;;;38.48;25.89
9335;BME280;4706;41.844;26.082;2022-08-30T09:08:04;100585.50;;;38.74;26.07
9335;BME280;4706;41.844;26.082;2022-08-30T09:10:31;100591.00;;;39.07;25.42
9335;BME280;4706;41.844;26.082;2022-08-30T09:12:58;100587.28;;;39.01;25.42
9335;BME280;4706;41.844;26.082;2022-08-30T09:15:30;100585.19;;;38.72;25.06
9335;BME280;4706;41.844;26.082;2022-08-30T09:17:58;100594.41;;;38.47;24.96
9335;BME280;4706;41.844;26.082;2022-08-30T09:20:42;100590.75;;;38.61;25.43
9335;BME280;4706;41.844;26.082;2022-08-30T09:23:30;100580.41;;;39.14;25.48
9335;BME280;4706;41.844;26.082;2022-08-30T09:26:02;100578.66;;;39.37;23.91
9335;BME280;4706;41.844;26.082;2022-08-30T09:28:42;100577.09;;;39.36;22.78
9335;BME280;4706;41.844;26.082;2022-08-30T09:34:08;100568.34;;;39.30;22.35
9335;BME280;4706;41.844;26.082;2022-08-30T09:36:53;100568.81;;;39.64;22.30
9335;BME280;4706;41.844;26.082;2022-08-30T09:39:30;100564.38;;;39.83;20.87
9335;BME280;4706;41.844;26.082;2022-08-30T09:42:19;100564.53;;;39.74;21.34
9335;BME280;4706;41.844;26.082;2022-08-30T09:44:45;100554.78;;;39.51;20.91
9335;BME280;4706;41.844;26.082;2022-08-30T09:47:28;100552.25;;;39.38;21.28
9335;BME280;4706;41.844;26.082;2022-08-30T09:50:15;100555.38;;;39.34;21.69
9335;BME280;4706;41.844;26.082;2022-08-30T09:53:18;100561.59;;;39.33;21.02
9335;BME280;4706;41.844;26.082;2022-08-30T09:58:42;100551.56;;;39.43;21.31
9335;BME280;4706;41.844;26.082;2022-08-30T10:01:45;100543.47;;;39.27;20.58
9335;BME280;4706;41.844;26.082;2022-08-30T10:04:17;100542.22;;;39.13;21.34
9335;BME280;4706;41.844;26.082;2022-08-30T10:06:52;100547.50;;;39.00;21.79
9335;BME280;4706;41.844;26.082;2022-08-30T10:09:44;100546.44;;;39.32;21.80
9335;BME280;4706;41.844;26.082;2022-08-30T10:23:24;100526.56;;;39.55;22.02
9335;BME280;4706;41.844;26.082;2022-08-30T10:26:03;100524.91;;;39.48;22.57
9335;BME280;4706;41.844;26.082;2022-08-30T10:28:41;100530.97;;;39.50;21.79
9335;BME280;4706;41.844;26.082;2022-08-30T10:31:19;100522.72;;;39.23;22.08
9335;BME280;4706;41.844;26.082;2022-08-30T10:33:52;100517.97;;;39.34;21.03
9335;BME280;4706;41.844;26.082;2022-08-30T10:36:30;100518.00;;;39.20;21.93
9335;BME280;4706;41.844;26.082;2022-08-30T10:38:57;100514.03;;;39.17;22.33
9335;BME280;4706;41.844;26.082;2022-08-30T10:41:35;100512.88;;;39.09;22.67
9335;BME280;4706;41.844;26.082;2022-08-30T10:44:10;100503.91;;;39.63;22.57
9335;BME280;4706;41.844;26.082;2022-08-30T10:49:21;100493.78;;;39.93;21.48
9335;BME280;4706;41.844;26.082;2022-08-30T10:54:56;100498.38;;;40.32;20.40
9335;BME280;4706;41.844;26.082;2022-08-30T10:57:23;100481.84;;;40.58;20.57
9335;BME280;4706;41.844;26.082;2022-08-30T11:00:15;100480.72;;;40.87;19.19
9335;BME280;4706;41.844;26.082;2022-08-30T11:05:33;100481.56;;;40.93;20.54
9335;BME280;4706;41.844;26.082;2022-08-30T11:13:29;100469.94;;;41.90;19.78
9335;BME280;4706;41.844;26.082;2022-08-30T11:16:05;100456.56;;;42.04;19.77
9335;BME280;4706;41.844;26.082;2022-08-30T11:18:49;100462.50;;;41.61;19.88
9335;BME280;4706;41.844;26.082;2022-08-30T11:29:37;100441.63;;;42.28;19.23
9335;BME280;4706;41.844;26.082;2022-08-30T11:32:20;100437.38;;;42.57;18.89
9335;BME280;4706;41.844;26.082;2022-08-30T11:40:04;100426.88;;;42.09;18.14
9335;BME280;4706;41.844;26.082;2022-08-30T11:42:38;100423.97;;;41.87;18.22
9335;BME280;4706;41.844;26.082;2022-08-30T11:47:54;100423.50;;;41.29;18.47
9335;BME280;4706;41.844;26.082;2022-08-30T11:50:48;100416.28;;;41.56;18.50
9335;BME280;4706;41.844;26.082;2022-08-30T11:53:35;100428.41;;;41.11;17.18
9335;BME280;4706;41.844;26.082;2022-08-30T11:56:41;100425.94;;;40.87;17.70
9335;BME280;4706;41.844;26.082;2022-08-30T11:59:16;100420.16;;;40.50;17.96
9335;BME280;4706;41.844;26.082;2022-08-30T12:01:45;100413.91;;;40.51;17.29
9335;BME280;4706;41.844;26.082;2022-08-30T12:12:45;100394.84;;;39.96;18.55
9335;BME280;4706;41.844;26.082;2022-08-30T12:14:53;100396.22;;;40.33;18.59
9335;BME280;4706;41.844;26.082;2022-08-30T12:20:19;100390.97;;;40.68;18.43
9335;BME280;4706;41.844;26.082;2022-08-30T12:22:47;100382.31;;;40.68;17.57
9335;BME280;4706;41.844;26.082;2022-08-30T12:25:31;100383.09;;;40.69;17.61
9335;BME280;4706;41.844;26.082;2022-08-30T12:28:23;100372.03;;;40.56;17.13
9335;BME280;4706;41.844;26.082;2022-08-30T12:30:51;100373.94;;;40.33;17.75
9335;BME280;4706;41.844;26.082;2022-08-30T12:33:27;100359.06;;;40.09;18.95
9335;BME280;4706;41.844;26.082;2022-08-30T12:35:57;100365.06;;;39.73;19.11
9335;BME280;4706;41.844;26.082;2022-08-30T12:38:23;100371.63;;;39.74;18.63
9335;BME280;4706;41.844;26.082;2022-08-30T12:40:52;100359.00;;;39.71;18.52
9335;BME280;4706;41.844;26.082;2022-08-30T12:43:47;100358.22;;;39.71;18.42
9335;BME280;4706;41.844;26.082;2022-08-30T12:46:15;100359.31;;;39.73;18.51
9335;BME280;4706;41.844;26.082;2022-08-30T12:48:42;100352.41;;;39.65;18.94
9335;BME280;4706;41.844;26.082;2022-08-30T12:54:16;100347.09;;;39.58;19.08
9335;BME280;4706;41.844;26.082;2022-08-30T12:57:04;100350.66;;;39.73;19.58
9335;BME280;4706;41.844;26.082;2022-08-30T12:59:38;100345.41;;;39.72;19.16
9335;BME280;4706;41.844;26.082;2022-08-30T13:02:26;100342.28;;;39.75;18.89
9335;BME280;4706;41.844;26.082;2022-08-30T13:04:54;100344.38;;;39.49;19.76
9335;BME280;4706;41.844;26.082;2022-08-30T13:07:38;100342.13;;;39.32;19.04
9335;BME280;4706;41.844;26.082;2022-08-30T13:10:23;100345.84;;;39.18;18.56
9335;BME280;4706;41.844;26.082;2022-08-30T13:13:00;100340.97;;;39.04;18.92
9335;BME280;4706;41.844;26.082;2022-08-30T13:15:32;100333.03;;;39.19;18.46
9335;BME280;4706;41.844;26.082;2022-08-30T13:18:16;100322.78;;;39.33;19.14
9335;BME280;4706;41.844;26.082;2022-08-30T13:20:44;100331.59;;;39.24;19.17
9335;BME280;4706;41.844;26.082;2022-08-30T13:23:10;100328.47;;;39.07;19.30
9335;BME280;4706;41.844;26.082;2022-08-30T13:25:38;100327.13;;;39.02;19.47
9335;BME280;4706;41.844;26.082;2022-08-30T13:28:05;100320.88;;;38.83;19.70
9335;BME280;4706;41.844;26.082;2022-08-30T13:30:32;100319.94;;;38.92;19.41
9335;BME280;4706;41.844;26.082;2022-08-30T13:32:58;100315.13;;;38.83;19.98
9335;BME280;4706;41.844;26.082;2022-08-30T13:35:26;100319.72;;;38.96;19.21
9335;BME280;4706;41.844;26.082;2022-08-30T13:37:53;100311.69;;;38.79;19.06
9335;BME280;4706;41.844;26.082;2022-08-30T13:40:20;100314.75;;;38.76;19.44
9335;BME280;4706;41.844;26.082;2022-08-30T13:42:46;100313.03;;;38.84;19.40
9335;BME280;4706;41.844;26.082;2022-08-30T13:45:13;100308.56;;;38.62;19.68
9335;BME280;4706;41.844;26.082;2022-08-30T13:47:39;100303.97;;;38.50;19.52
9335;BME280;4706;41.844;26.082;2022-08-30T13:50:05;100305.06;;;38.53;19.99
9335;BME280;4706;41.844;26.082;2022-08-30T13:52:30;100302.59;;;38.66;19.34
9335;BME280;4706;41.844;26.082;2022-08-30T13:54:56;100302.03;;;38.42;19.73
9335;BME280;4706;41.844;26.082;2022-08-30T13:57:24;100306.88;;;38.35;20.40
9335;BME280;4706;41.844;26.082;2022-08-30T13:59:50;100306.22;;;38.26;20.71
9335;BME280;4706;41.844;26.082;2022-08-30T14:02:16;100309.53;;;38.04;20.96
9335;BME280;4706;41.844;26.082;2022-08-30T14:04:41;100305.09;;;37.73;21.04
9335;BME280;4706;41.844;26.082;2022-08-30T14:07:07;100303.31;;;37.61;20.99
9335;BME280;4706;41.844;26.082;2022-08-30T14:09:33;100300.34;;;37.55;21.11
9335;BME280;4706;41.844;26.082;2022-08-30T14:11:58;100303.50;;;37.42;21.16
9335;BME280;4706;41.844;26.082;2022-08-30T14:14:24;100301.59;;;37.25;21.35
9335;BME280;4706;41.844;26.082;2022-08-30T14:16:49;100305.88;;;37.29;21.40
9335;BME280;4706;41.844;26.082;2022-08-30T14:19:15;100298.63;;;37.34;21.49
9335;BME280;4706;41.844;26.082;2022-08-30T14:21:42;100298.41;;;37.47;20.98